Time;durP1;ratioP1;P1;durP2;ratioP2;P2;SDS_P1;SDS_P2;PMS_P1;PMS_P2;Temp;Humidity;BMP_temperature;BMP_pressure;BME280_temperature;BME280_humidity;BME280_pressure;Samples;Min_cycle;Max_cycle;Signal;HPM_P1;HPM_P2
2022/08/22 00:02:19;;;;;;;2.65;2.45;;;18.60;99.90;;;;;;6303544;22;19999;-93
2022/08/22 00:05:01;;;;;;;3.22;2.45;;;18.50;99.90;;;;;;6304455;22;19999;-90
2022/08/22 00:08:01;;;;;;;4.22;2.42;;;18.60;99.90;;;;;;6304578;22;20459;-93
2022/08/22 00:10:44;;;;;;;2.38;2.17;;;18.60;99.90;;;;;;6305101;22;20015;-84
2022/08/22 00:13:33;;;;;;;4.18;2.40;;;18.60;99.90;;;;;;6307610;22;20052;-94
2022/08/22 00:16:12;;;;;;;2.97;2.70;;;18.60;99.90;;;;;;6248388;22;20030;-92
2022/08/22 00:19:01;;;;;;;2.95;2.60;;;18.60;99.90;;;;;;6305940;22;20009;-92
2022/08/22 00:21:40;;;;;;;2.75;2.55;;;18.60;99.90;;;;;;6306965;22;19995;-95
2022/08/22 00:24:08;;;;;;;4.30;2.78;;;18.60;99.90;;;;;;6310153;22;20011;-92
2022/08/22 00:26:50;;;;;;;3.50;2.63;;;18.60;99.90;;;;;;6311211;22;20075;-83
2022/08/22 00:29:33;;;;;;;4.25;2.95;;;18.60;99.90;;;;;;6307681;22;20049;-94
2022/08/22 00:32:17;;;;;;;3.58;2.90;;;18.60;99.90;;;;;;6306359;22;20006;-94
2022/08/22 00:35:06;;;;;;;3.65;3.20;;;18.60;99.90;;;;;;6283273;22;19999;-83
2022/08/22 00:37:41;;;;;;;6.20;3.20;;;18.60;99.90;;;;;;6308068;22;20339;-83
2022/08/22 00:40:14;;;;;;;5.20;3.40;;;18.60;99.90;;;;;;6312981;22;20452;-94
2022/08/22 00:42:51;;;;;;;4.13;3.30;;;18.60;99.90;;;;;;6309877;22;20029;-83
2022/08/22 00:45:58;;;;;;;5.32;2.83;;;18.60;99.90;;;;;;6313198;22;19999;-94
2022/08/22 00:48:34;;;;;;;9.27;3.50;;;18.60;99.90;;;;;;6307397;22;20005;-94
2022/08/22 00:51:42;;;;;;;5.07;3.17;;;18.60;99.90;;;;;;6305018;22;20035;-94
2022/08/22 00:54:32;;;;;;;;;;;18.60;99.90;;;;;;6311134;22;20010;-94
2022/08/22 00:57:07;;;;;;;3.40;3.10;;;18.60;99.90;;;;;;6303724;22;19921;-91
2022/08/22 01:00:00;;;;;;;4.20;3.53;;;18.60;99.90;;;;;;6276774;22;20007;-85
2022/08/22 01:02:39;;;;;;;5.85;3.70;;;18.60;99.90;;;;;;6304403;22;20021;-83
2022/08/22 01:05:36;;;;;;;5.35;3.60;;;18.60;99.90;;;;;;6303645;22;20003;-90
2022/08/22 01:08:36;;;;;;;4.63;3.72;;;18.60;99.90;;;;;;6304374;22;20003;-85
2022/08/22 01:11:23;;;;;;;5.55;3.58;;;18.60;99.90;;;;;;6243957;22;20023;-86
2022/08/22 01:14:10;;;;;;;4.50;3.38;;;18.60;99.90;;;;;;6311483;22;20479;-92
2022/08/22 01:16:41;;;;;;;5.72;4.00;;;18.60;99.90;;;;;;6310957;22;19999;-94
2022/08/22 01:19:13;;;;;;;4.80;3.95;;;18.60;99.90;;;;;;6311035;22;19999;-84
2022/08/22 01:22:23;;;;;;;4.75;3.72;;;18.60;99.90;;;;;;6319220;22;19999;-87
2022/08/22 01:25:21;;;;;;;5.13;3.90;;;18.60;99.90;;;;;;6253804;22;20011;-83
2022/08/22 01:28:25;;;;;;;4.82;3.85;;;18.60;99.90;;;;;;6317964;22;20652;-84
2022/08/22 01:31:14;;;;;;;3.90;3.60;;;18.60;99.90;;;;;;6310985;22;20022;-83
2022/08/22 01:33:39;;;;;;;10.75;4.88;;;18.60;99.90;;;;;;6278927;22;20005;-83
2022/08/22 01:36:34;;;;;;;7.90;4.43;;;18.60;99.90;;;;;;6282166;22;20027;-83
2022/08/22 01:39:35;;;;;;;4.43;3.70;;;18.60;99.90;;;;;;6304318;22;20003;-83
2022/08/22 01:42:23;;;;;;;6.10;4.45;;;18.60;99.90;;;;;;6303458;22;20428;-83
2022/08/22 01:45:21;;;;;;;5.40;4.00;;;18.60;99.90;;;;;;6314505;22;20538;-82
2022/08/22 01:47:55;;;;;;;8.38;4.30;;;18.60;99.90;;;;;;6318793;22;20336;-83
2022/08/22 01:50:29;;;;;;;4.40;4.00;;;18.60;99.90;;;;;;6325881;22;20003;-83
2022/08/22 01:53:17;;;;;;;6.88;4.57;;;18.60;99.90;;;;;;6337360;22;20003;-84
2022/08/22 01:56:10;;;;;;;6.45;4.70;;;18.60;99.90;;;;;;6333419;22;20030;-83
2022/08/22 01:58:44;;;;;;;7.68;4.65;;;18.60;99.90;;;;;;6287057;22;19998;-84
2022/08/22 02:01:16;;;;;;;6.85;4.35;;;18.60;99.90;;;;;;6301237;22;20443;-83
2022/08/22 02:04:07;;;;;;;6.03;4.50;;;18.60;99.90;;;;;;6321390;22;20007;-83
2022/08/22 02:07:01;;;;;;;5.65;4.45;;;18.60;99.90;;;;;;6312063;22;19996;-83
2022/08/22 02:09:39;;;;;;;5.70;4.43;;;18.40;99.90;;;;;;6321905;22;20313;-84
2022/08/22 02:12:10;;;;;;;6.35;4.45;;;18.60;99.90;;;;;;6306848;22;20030;-83
2022/08/22 02:15:13;;;;;;;5.25;4.63;;;18.70;99.90;;;;;;6314538;22;20021;-83
2022/08/22 02:18:02;;;;;;;7.60;4.88;;;18.60;99.90;;;;;;6255990;22;20007;-84
2022/08/22 02:21:04;;;;;;;7.00;4.88;;;18.60;99.90;;;;;;6322037;22;20041;-83
2022/08/22 02:24:04;;;;;;;8.20;4.85;;;18.60;99.90;;;;;;6327728;22;20010;-83
2022/08/22 02:26:49;;;;;;;5.05;4.47;;;18.70;99.90;;;;;;6318665;22;20003;-85
2022/08/22 02:29:19;;;;;;;6.13;4.63;;;18.70;99.90;;;;;;6322285;22;20017;-83
2022/08/22 02:32:01;;;;;;;7.18;4.70;;;18.60;99.90;;;;;;6323911;22;20023;-83
2022/08/22 02:34:38;;;;;;;9.30;4.97;;;18.60;99.90;;;;;;6324720;22;20428;-83
2022/08/22 02:37:16;;;;;;;7.72;4.90;;;18.60;99.90;;;;;;6323481;22;19983;-83
2022/08/22 02:40:05;;;;;;;;;;;18.70;99.90;;;;;;6326835;22;20428;-83
2022/08/22 02:42:36;;;;;;;8.35;5.00;;;18.60;99.90;;;;;;6290070;22;20236;-84
2022/08/22 02:45:22;;;;;;;7.22;4.97;;;18.60;99.90;;;;;;6319568;22;20463;-83
2022/08/22 02:48:18;;;;;;;7.65;4.63;;;18.60;99.90;;;;;;6318645;22;20006;-83
2022/08/22 02:51:21;;;;;;;7.25;5.00;;;18.60;99.90;;;;;;6314727;22;20098;-89
2022/08/22 02:54:23;;;;;;;9.52;5.20;;;18.60;99.90;;;;;;6328664;22;19999;-83
2022/08/22 02:57:02;;;;;;;8.93;4.88;;;18.60;99.90;;;;;;6211665;23;20009;-84
2022/08/22 02:59:41;;;;;;;5.53;5.03;;;18.60;99.90;;;;;;6320969;22;19987;-83
2022/08/22 03:02:43;;;;;;;6.75;5.40;;;18.60;99.90;;;;;;6335873;22;19987;-90
2022/08/22 03:05:33;;;;;;;5.15;4.65;;;18.60;99.90;;;;;;6329043;22;19983;-83
2022/08/22 03:08:40;;;;;;;9.32;5.70;;;18.60;99.90;;;;;;6326346;22;20019;-84
2022/08/22 03:11:18;;;;;;;8.50;5.45;;;18.60;99.90;;;;;;6281112;22;20011;-84
2022/08/22 03:13:53;;;;;;;;;;;18.70;99.90;;;;;;6323897;22;19999;-95
2022/08/22 03:16:30;;;;;;;8.50;5.53;;;18.60;99.90;;;;;;6324539;22;19943;-94
2022/08/22 03:18:55;;;;;;;9.43;5.40;;;18.60;99.90;;;;;;6318150;22;19995;-90
2022/08/22 03:21:42;;;;;;;6.93;5.43;;;18.60;99.90;;;;;;6325478;22;20003;-94
2022/08/22 03:24:16;;;;;;;5.93;5.18;;;18.60;99.90;;;;;;6322046;22;19999;-93
2022/08/22 03:27:05;;;;;;;8.20;5.30;;;18.60;99.90;;;;;;6315390;22;20003;-88
2022/08/22 03:29:45;;;;;;;10.02;5.32;;;18.60;99.90;;;;;;6323124;22;20002;-93
2022/08/22 03:32:19;;;;;;;8.77;5.40;;;18.60;99.90;;;;;;6302064;22;19995;-91
2022/08/22 03:35:16;;;;;;;8.50;5.75;;;18.60;99.90;;;;;;6330900;22;19991;-84
2022/08/22 03:37:44;;;;;;;6.78;5.55;;;18.60;99.90;;;;;;6335832;22;20004;-84
2022/08/22 03:40:18;;;;;;;9.18;5.75;;;18.60;99.90;;;;;;6333233;22;20009;-83
2022/08/22 03:43:20;;;;;;;7.18;5.70;;;18.60;99.90;;;;;;6310919;22;20514;-84
2022/08/22 03:46:15;;;;;;;9.18;5.80;;;18.60;99.90;;;;;;6316538;22;19999;-84
2022/08/22 03:49:03;;;;;;;10.55;5.90;;;18.60;99.90;;;;;;6310721;22;20034;-87
2022/08/22 03:51:37;;;;;;;7.57;5.65;;;18.60;99.90;;;;;;6318192;22;20007;-83
2022/08/22 03:54:36;;;;;;;7.65;5.60;;;18.60;99.90;;;;;;6320249;22;20007;-88
2022/08/22 03:57:29;;;;;;;7.50;5.72;;;18.60;99.90;;;;;;6291660;22;20011;-84
2022/08/22 04:00:18;;;;;;;6.35;5.70;;;18.60;99.90;;;;;;6309981;22;20011;-89
2022/08/22 04:03:08;;;;;;;8.80;6.05;;;18.60;99.90;;;;;;6302420;22;20372;-90
2022/08/22 04:06:13;;;;;;;8.57;6.10;;;18.60;99.90;;;;;;6303528;22;20064;-89
2022/08/22 04:09:03;;;;;;;9.75;6.22;;;18.60;99.90;;;;;;6256534;22;20000;-90
2022/08/22 04:11:30;;;;;;;8.52;6.30;;;18.60;99.90;;;;;;6312130;22;20013;-86
2022/08/22 04:14:13;;;;;;;10.07;5.70;;;18.60;99.90;;;;;;6309576;22;19996;-85
2022/08/22 04:17:00;;;;;;;9.43;6.35;;;18.60;99.90;;;;;;6311254;22;20005;-90
2022/08/22 04:19:42;;;;;;;11.10;6.13;;;18.60;99.90;;;;;;6279753;22;19995;-91
2022/08/22 04:22:41;;;;;;;7.68;6.00;;;18.60;99.90;;;;;;6275915;22;20466;-87
2022/08/22 04:25:22;;;;;;;8.63;5.95;;;18.60;99.90;;;;;;6297678;22;19999;-86
2022/08/22 04:28:22;;;;;;;11.05;6.38;;;18.60;99.90;;;;;;6299693;22;20027;-92
2022/08/22 04:30:51;;;;;;;9.63;6.35;;;18.60;99.90;;;;;;6280311;22;20007;-92
2022/08/22 04:33:33;;;;;;;12.05;6.20;;;18.60;99.90;;;;;;6302288;22;20003;-91
2022/08/22 04:36:02;;;;;;;12.07;6.18;;;18.60;99.90;;;;;;6302144;22;20009;-91
2022/08/22 04:38:41;;;;;;;7.88;5.57;;;18.60;99.90;;;;;;6301963;22;20660;-90
2022/08/22 04:41:10;;;;;;;6.18;5.57;;;18.60;99.90;;;;;;6277128;22;20052;-88
2022/08/22 04:43:57;;;;;;;8.48;6.07;;;18.60;99.90;;;;;;6304571;22;19999;-91
2022/08/22 04:46:31;;;;;;;12.30;6.47;;;20.20;99.90;;;;;;6302507;22;19996;-90
2022/08/22 04:49:15;;;;;;;8.20;6.20;;;18.60;99.90;;;;;;6302739;22;20474;-87
2022/08/22 04:51:55;;;;;;;7.63;6.32;;;18.60;99.90;;;;;;6301910;22;20003;-91
2022/08/22 04:54:29;;;;;;;8.07;6.72;;;18.60;99.90;;;;;;6302092;22;20445;-88
2022/08/22 04:57:20;;;;;;;8.88;6.28;;;18.60;99.90;;;;;;6302095;22;20023;-89
2022/08/22 04:59:47;;;;;;;7.38;5.93;;;18.60;99.90;;;;;;6301895;22;19999;-87
2022/08/22 05:02:22;;;;;;;6.95;6.25;;;18.60;99.90;;;;;;6302305;22;19996;-91
2022/08/22 05:05:02;;;;;;;13.40;6.43;;;18.60;99.90;;;;;;6275534;22;20007;-90
2022/08/22 05:07:34;;;;;;;10.18;6.72;;;18.60;99.90;;;;;;6302418;22;19999;-92
2022/08/22 05:10:16;;;;;;;9.90;7.18;;;18.60;99.90;;;;;;6302370;22;20040;-91
2022/08/22 05:12:46;;;;;;;9.57;7.07;;;18.60;99.90;;;;;;6275390;22;19999;-90
2022/08/22 05:15:38;;;;;;;11.55;6.70;;;18.60;99.90;;;;;;6302418;22;20026;-91
2022/08/22 05:18:08;;;;;;;10.73;7.20;;;18.60;99.90;;;;;;6302171;22;20018;-84
2022/08/22 05:20:35;;;;;;;10.75;6.60;;;18.60;99.90;;;;;;6302630;22;20090;-89
2022/08/22 05:23:11;;;;;;;10.40;7.43;;;18.60;99.90;;;;;;6274935;22;20056;-89
2022/08/22 05:25:40;;;;;;;10.40;6.80;;;18.60;99.90;;;;;;6275972;22;20001;-89
2022/08/22 05:28:41;;;;;;;10.52;6.43;;;18.60;99.90;;;;;;6304925;22;20007;-88
2022/08/22 05:31:11;;;;;;;8.32;6.75;;;18.60;99.90;;;;;;6283618;22;20014;-88
2022/08/22 05:33:46;;;;;;;8.02;6.50;;;18.70;99.90;;;;;;6305609;22;20003;-89
2022/08/22 05:36:30;;;;;;;11.13;7.50;;;18.70;99.90;;;;;;6304169;22;20003;-87
2022/08/22 05:39:24;;;;;;;10.38;6.85;;;18.70;99.90;;;;;;6303676;22;20309;-89
2022/08/22 05:41:52;;;;;;;9.63;6.70;;;18.70;99.90;;;;;;6275722;22;20038;-90
2022/08/22 05:44:31;;;;;;;12.77;7.93;;;18.70;99.90;;;;;;6304233;22;20022;-89
2022/08/22 05:47:19;;;;;;;10.77;7.00;;;18.70;99.90;;;;;;6304280;22;20006;-90
2022/08/22 05:50:18;;;;;;;10.55;7.35;;;18.70;99.90;;;;;;6277215;22;20390;-90
2022/08/22 05:53:09;;;;;;;9.45;7.68;;;18.70;99.90;;;;;;6276498;22;20082;-90
2022/08/22 05:55:56;;;;;;;13.45;7.50;;;18.70;99.90;;;;;;6303796;22;20060;-89
2022/08/22 05:58:53;;;;;;;12.70;7.47;;;18.80;99.90;;;;;;6304267;22;20006;-88
2022/08/22 06:01:33;;;;;;;9.38;7.65;;;18.80;99.90;;;;;;6276583;22;20355;-90
2022/08/22 06:04:10;;;;;;;11.80;8.07;;;18.70;99.90;;;;;;6304071;22;20003;-90
2022/08/22 06:06:45;;;;;;;9.52;7.75;;;18.70;99.90;;;;;;6303840;22;20339;-89
2022/08/22 06:09:23;;;;;;;10.85;7.32;;;18.80;99.90;;;;;;6304925;22;19999;-89
2022/08/22 06:12:07;;;;;;;15.00;7.70;;;18.80;99.90;;;;;;6303988;22;20340;-90
2022/08/22 06:14:40;;;;;;;16.35;8.02;;;18.80;99.90;;;;;;6303944;22;20052;-90
2022/08/22 06:17:20;;;;;;;11.40;7.68;;;18.90;99.90;;;;;;6303866;22;20003;-89
2022/08/22 06:19:49;;;;;;;13.90;8.80;;;18.90;99.90;;;;;;6304039;22;19995;-90
2022/08/22 06:22:24;;;;;;;14.48;8.38;;;18.90;99.90;;;;;;6303774;22;20048;-89
2022/08/22 06:24:53;;;;;;;14.80;8.55;;;18.90;99.90;;;;;;6303899;22;20515;-89
2022/08/22 06:27:22;;;;;;;10.70;8.20;;;18.90;99.90;;;;;;6276268;22;20325;-89
2022/08/22 06:29:56;;;;;;;13.38;8.38;;;18.90;99.90;;;;;;6303940;22;20056;-89
2022/08/22 06:32:25;;;;;;;9.68;7.82;;;18.90;99.90;;;;;;6303744;22;20332;-89
2022/08/22 06:34:57;;;;;;;11.38;7.93;;;19.00;99.90;;;;;;6303666;22;20435;-89
2022/08/22 06:37:31;;;;;;;15.68;8.90;;;19.00;99.90;;;;;;6303399;22;19999;-86
2022/08/22 06:39:58;;;;;;;14.10;8.43;;;19.00;99.90;;;;;;6303419;22;20004;-88
2022/08/22 06:42:27;;;;;;;13.33;8.67;;;19.10;99.90;;;;;;6276660;22;20370;-85
2022/08/22 06:45:08;;;;;;;12.18;8.45;;;19.00;99.90;;;;;;6276864;22;20108;-85
2022/08/22 06:47:44;;;;;;;18.63;8.60;;;19.10;99.90;;;;;;6303600;22;20558;-88
2022/08/22 06:50:19;;;;;;;12.52;7.65;;;19.10;99.90;;;;;;6277369;22;20021;-89
2022/08/22 06:52:56;;;;;;;9.48;8.48;;;19.10;99.90;;;;;;6303784;22;20004;-85
2022/08/22 06:55:25;;;;;;;7.97;6.73;;;19.20;99.90;;;;;;6310426;22;19999;-86
2022/08/22 06:57:56;;;;;;;12.13;7.95;;;19.20;99.90;;;;;;6326564;22;20002;-87
2022/08/22 07:00:23;;;;;;;9.50;7.32;;;19.20;99.90;;;;;;6312234;22;19999;-88
2022/08/22 07:02:57;;;;;;;12.50;8.35;;;19.20;99.90;;;;;;6305977;22;20064;-89
2022/08/22 07:05:28;;;;;;;11.55;8.43;;;19.20;99.90;;;;;;6304093;22;20003;-85
2022/08/22 07:07:55;;;;;;;7.32;6.63;;;19.30;99.90;;;;;;6276408;22;20003;-89
2022/08/22 07:10:23;;;;;;;9.60;6.90;;;19.30;99.90;;;;;;6303257;22;20007;-88
2022/08/22 07:12:51;;;;;;;;;;;19.30;99.90;;;;;;6277069;22;20049;-88
2022/08/22 07:15:36;;;;;;;;;;;19.40;99.90;;;;;;6303743;22;20277;-85
2022/08/22 07:18:23;;;;;;;9.98;6.80;;;19.40;99.90;;;;;;6296253;22;19899;-88
2022/08/22 07:20:51;;;;;;;;;;;19.40;99.90;;;;;;6303647;22;20031;-90
2022/08/22 07:23:39;;;;;;;7.78;6.65;;;19.40;99.90;;;;;;6303223;22;19899;-85
2022/08/22 07:26:29;;;;;;;9.68;6.20;;;19.40;99.90;;;;;;6303303;22;20006;-89
2022/08/22 07:29:01;;;;;;;8.43;6.13;;;19.40;99.90;;;;;;6275688;22;20010;-89
2022/08/22 07:31:57;;;;;;;8.55;6.50;;;19.40;99.90;;;;;;6303279;22;20025;-89
2022/08/22 07:34:48;;;;;;;7.70;6.90;;;19.50;99.90;;;;;;6303481;22;19999;-87
2022/08/22 07:37:24;;;;;;;10.30;7.93;;;19.50;99.90;;;;;;6304177;22;19999;-89
2022/08/22 07:39:57;;;;;;;8.65;6.78;;;19.60;99.90;;;;;;6303074;22;20052;-89
2022/08/22 07:43:08;;;;;;;8.13;6.93;;;19.70;99.90;;;;;;6303041;22;20014;-86
2022/08/22 07:45:48;;;;;;;10.10;6.60;;;19.70;99.90;;;;;;6302690;22;20010;-85
2022/08/22 07:48:26;;;;;;;7.22;5.93;;;19.70;99.90;;;;;;6276440;22;20011;-87
2022/08/22 07:51:11;;;;;;;11.48;6.72;;;19.80;99.90;;;;;;6302789;22;20011;-89
2022/08/22 07:53:45;;;;;;;7.00;6.22;;;19.80;99.90;;;;;;6303125;22;20007;-89
2022/08/22 07:56:19;;;;;;;8.10;6.60;;;19.90;99.90;;;;;;6302883;22;20447;-88
2022/08/22 07:58:50;;;;;;;8.65;6.93;;;19.90;99.90;;;;;;6303765;22;20005;-85
2022/08/22 08:01:19;;;;;;;11.38;8.02;;;19.90;99.90;;;;;;6303509;22;20006;-87
2022/08/22 08:03:59;;;;;;;8.27;7.10;;;19.90;99.90;;;;;;6303922;22;20048;-85
2022/08/22 08:06:27;;;;;;;10.98;8.18;;;20.00;99.90;;;;;;6302841;22;20008;-85
2022/08/22 08:08:54;;;;;;;11.35;8.45;;;20.00;99.90;;;;;;6302600;22;20015;-90
2022/08/22 08:11:23;;;;;;;12.52;7.43;;;20.00;99.90;;;;;;6302606;22;19995;-85
2022/08/22 08:14:09;;;;;;;12.75;7.40;;;19.90;99.90;;;;;;6276096;22;20082;-89
2022/08/22 08:16:52;;;;;;;10.80;7.15;;;20.00;99.90;;;;;;6275309;22;20078;-85
2022/08/22 08:19:19;;;;;;;9.82;6.70;;;20.00;99.90;;;;;;6303705;22;20040;-90
2022/08/22 08:21:52;;;;;;;8.50;6.40;;;20.00;99.90;;;;;;6276149;22;20003;-86
2022/08/22 08:24:35;;;;;;;8.05;5.68;;;20.00;99.90;;;;;;6276288;22;20007;-86
2022/08/22 08:30:00;;;;;;;6.28;4.82;;;20.10;99.90;;;;;;6303448;22;20018;-89
2022/08/22 08:32:37;;;;;;;7.50;5.50;;;20.20;99.90;;;;;;6274934;22;20339;-88
2022/08/22 08:35:17;;;;;;;6.07;5.35;;;20.20;99.90;;;;;;6302672;22;20007;-85
2022/08/22 08:38:14;;;;;;;6.47;5.03;;;20.20;99.90;;;;;;6302631;22;20004;-89
2022/08/22 08:41:05;;;;;;;4.80;4.00;;;20.30;99.90;;;;;;6290889;22;19999;-89
2022/08/22 08:43:48;;;;;;;4.72;3.88;;;20.30;99.90;;;;;;6302644;22;20439;-88
2022/08/22 08:46:32;;;;;;;4.07;3.22;;;20.30;99.90;;;;;;6302496;22;20003;-88
2022/08/22 08:49:35;;;;;;;3.30;3.00;;;20.30;99.90;;;;;;6302169;22;20335;-85
2022/08/22 08:52:19;;;;;;;3.50;3.00;;;20.40;99.90;;;;;;6302393;22;20030;-90
2022/08/22 08:55:07;;;;;;;4.82;3.10;;;20.40;99.90;;;;;;6302257;22;20035;-89
2022/08/22 08:57:57;;;;;;;5.38;2.78;;;20.50;99.90;;;;;;6302331;22;20003;-86
2022/08/22 09:01:02;;;;;;;4.00;3.05;;;20.60;99.90;;;;;;6302820;22;20098;-85
2022/08/22 09:03:43;;;;;;;5.38;3.35;;;20.70;99.90;;;;;;6278114;22;20003;-86
2022/08/22 09:06:26;;;;;;;3.20;2.90;;;20.70;99.90;;;;;;6305804;22;20000;-88
2022/08/22 09:09:01;;;;;;;4.00;2.38;;;20.80;99.90;;;;;;6306027;22;20003;-85
2022/08/22 09:11:54;;;;;;;3.70;2.75;;;20.80;99.90;;;;;;6305831;22;20003;-85
2022/08/22 09:14:37;;;;;;;5.07;3.00;;;20.80;99.90;;;;;;6306646;22;19995;-86
2022/08/22 09:17:45;;;;;;;3.25;2.30;;;20.80;99.90;;;;;;6306028;22;20003;-87
2022/08/22 09:20:16;;;;;;;;;;;20.90;99.90;;;;;;6306213;22;19995;-90
2022/08/22 09:22:56;;;;;;;2.45;2.10;;;21.00;99.90;;;;;;6305886;22;19899;-90
2022/08/22 09:25:26;;;;;;;2.10;1.90;;;21.00;99.90;;;;;;6279558;22;20013;-91
2022/08/22 09:28:11;;;;;;;2.72;1.73;;;21.00;99.90;;;;;;6306901;22;20332;-90
2022/08/22 09:31:01;;;;;;;2.80;2.10;;;21.00;99.90;;;;;;6278864;22;20509;-90
2022/08/22 09:33:42;;;;;;;1.70;1.60;;;21.00;99.90;;;;;;6319298;22;19989;-88
2022/08/22 09:36:26;;;;;;;3.75;1.60;;;21.00;99.90;;;;;;6331315;22;20014;-88
2022/08/22 09:38:57;;;;;;;1.73;1.60;;;21.10;99.90;;;;;;6306093;22;19991;-87
2022/08/22 09:41:38;;;;;;;1.63;1.52;;;21.10;99.90;;;;;;6314349;22;20006;-86
2022/08/22 09:44:14;;;;;;;1.63;1.52;;;21.10;99.90;;;;;;6307389;22;20502;-90
2022/08/22 09:46:48;;;;;;;1.63;1.40;;;21.10;99.90;;;;;;6305897;22;20454;-90
2022/08/22 09:49:26;;;;;;;1.52;1.45;;;21.10;99.90;;;;;;6305733;22;20266;-89
2022/08/22 09:52:16;;;;;;;2.00;1.80;;;21.10;99.90;;;;;;6279871;22;20026;-88
2022/08/22 09:54:48;;;;;;;1.67;1.58;;;21.20;99.90;;;;;;6248604;22;20003;-89
2022/08/22 09:57:13;;;;;;;1.92;1.70;;;21.20;99.90;;;;;;6305843;22;20007;-90
2022/08/22 10:00:12;;;;;;;3.33;1.40;;;21.10;99.90;;;;;;6305503;22;19999;-90
2022/08/22 10:02:39;;;;;;;1.95;1.60;;;21.10;99.90;;;;;;6305885;22;20003;-90
2022/08/22 10:05:28;;;;;;;1.80;1.70;;;21.20;99.90;;;;;;6305573;22;20557;-90
2022/08/22 10:08:31;;;;;;;2.92;1.50;;;21.30;99.90;;;;;;6306750;22;20074;-89
2022/08/22 10:11:12;;;;;;;1.50;1.40;;;21.40;99.90;;;;;;6278121;22;20015;-85
2022/08/22 10:14:19;;;;;;;5.70;1.45;;;21.50;99.90;;;;;;6276696;22;20003;-89
2022/08/22 10:16:57;;;;;;;;;;;21.30;99.90;;;;;;6304723;22;20345;-90
2022/08/22 10:19:41;;;;;;;1.80;1.30;;;21.20;99.90;;;;;;6305269;22;19903;-89
2022/08/22 10:22:22;;;;;;;2.15;1.45;;;21.30;99.90;;;;;;6303978;22;20010;-89
2022/08/22 10:25:06;;;;;;;1.30;1.20;;;21.30;99.90;;;;;;6276399;22;20031;-84
2022/08/22 10:27:54;;;;;;;2.55;1.20;;;21.30;99.90;;;;;;6304140;22;20440;-90
2022/08/22 10:30:41;;;;;;;1.50;1.40;;;21.40;99.90;;;;;;6303734;22;20440;-91
2022/08/22 10:33:17;;;;;;;1.95;1.20;;;21.40;99.90;;;;;;6303751;22;20003;-85
2022/08/22 10:35:43;;;;;;;2.45;1.30;;;21.50;99.90;;;;;;6303793;22;19999;-90
2022/08/22 10:38:22;;;;;;;1.92;1.20;;;21.60;99.90;;;;;;6303764;22;20003;-85
2022/08/22 10:41:14;;;;;;;1.90;1.15;;;21.70;99.90;;;;;;6303541;22;20007;-89
2022/08/22 10:43:59;;;;;;;2.30;1.08;;;21.70;99.90;;;;;;6263822;22;20000;-84
2022/08/22 10:46:38;;;;;;;2.08;1.23;;;21.70;99.90;;;;;;6304713;22;19999;-85
2022/08/22 10:49:19;;;;;;;1.65;1.10;;;21.70;99.90;;;;;;6303422;22;20462;-85
2022/08/22 10:51:57;;;;;;;1.30;1.20;;;21.70;99.90;;;;;;6303409;22;20415;-85
2022/08/22 10:54:36;;;;;;;1.67;1.17;;;21.70;99.90;;;;;;6276987;22;20003;-87
2022/08/22 10:57:13;;;;;;;1.20;1.10;;;21.80;99.90;;;;;;6303377;22;20000;-89
2022/08/22 11:00:12;;;;;;;1.20;1.10;;;22.10;99.90;;;;;;6303492;22;20079;-88
2022/08/22 11:02:47;;;;;;;0.93;0.93;;;22.20;99.90;;;;;;6303194;22;20003;-90
2022/08/22 11:05:38;;;;;;;3.67;1.15;;;22.20;99.90;;;;;;6275780;22;20003;-86
2022/08/22 11:08:16;;;;;;;1.67;1.20;;;22.10;99.90;;;;;;6303508;22;20508;-85
2022/08/22 11:10:52;;;;;;;1.70;1.20;;;22.00;99.90;;;;;;6302975;22;20034;-88
2022/08/22 11:13:31;;;;;;;2.33;1.10;;;21.90;99.90;;;;;;6303338;22;20078;-85
2022/08/22 11:16:21;;;;;;;2.50;1.25;;;22.00;99.90;;;;;;6276675;22;20003;-89
2022/08/22 11:18:56;;;;;;;2.45;1.27;;;22.00;99.90;;;;;;6303176;22;20022;-89
2022/08/22 11:21:49;;;;;;;2.50;1.25;;;22.10;99.90;;;;;;6275714;22;20035;-85
2022/08/22 11:24:29;;;;;;;1.27;1.10;;;22.20;99.90;;;;;;6303102;22;20011;-89
2022/08/22 11:27:50;;;;;;;2.28;1.02;;;22.20;99.90;;;;;;6304219;22;20327;-85
2022/08/22 11:30:28;;;;;;;1.52;1.10;;;22.30;99.90;;;;;;6133612;23;20084;-85
2022/08/22 11:33:12;;;;;;;1.48;1.30;;;22.30;99.90;;;;;;6283347;22;20003;-87
2022/08/22 11:36:10;;;;;;;1.20;1.10;;;22.50;99.90;;;;;;6302975;22;20003;-85
2022/08/22 11:39:17;;;;;;;3.65;1.20;;;22.60;99.90;;;;;;6296747;22;20070;-85
2022/08/22 11:42:12;;;;;;;2.10;1.58;;;22.70;99.90;;;;;;6263272;22;20026;-85
2022/08/22 11:44:45;;;;;;;3.30;1.33;;;22.60;99.90;;;;;;6275737;22;20025;-85
2022/08/22 11:47:14;;;;;;;2.17;1.30;;;22.60;99.90;;;;;;6302933;22;20068;-84
2022/08/22 11:50:05;;;;;;;2.15;1.30;;;22.60;99.90;;;;;;6302639;22;20015;-86
2022/08/22 11:53:02;;;;;;;2.58;1.40;;;22.50;99.90;;;;;;6302774;22;20022;-85
2022/08/22 11:55:54;;;;;;;2.13;1.20;;;22.40;99.90;;;;;;6303912;22;20505;-85
2022/08/22 11:58:26;;;;;;;2.25;1.27;;;22.40;99.90;;;;;;6275239;22;20034;-85
2022/08/22 12:01:03;;;;;;;2.20;1.10;;;22.40;99.90;;;;;;6302623;22;20444;-89
2022/08/22 12:03:40;;;;;;;2.10;1.20;;;22.40;99.90;;;;;;6304057;22;20027;-85
2022/08/22 12:06:37;;;;;;;2.15;1.10;;;22.40;99.90;;;;;;6302768;22;20070;-84
2022/08/22 12:09:16;;;;;;;1.58;1.20;;;22.20;99.90;;;;;;6302583;22;20343;-85
2022/08/22 12:11:56;;;;;;;1.40;1.30;;;22.20;99.90;;;;;;6303372;22;20057;-89
2022/08/22 12:15:00;;;;;;;6.20;1.40;;;22.20;99.90;;;;;;6283757;22;20189;-87
2022/08/22 12:18:00;;;;;;;2.13;1.38;;;22.20;99.90;;;;;;6318738;22;19999;-85
2022/08/22 12:20:34;;;;;;;6.88;1.52;;;22.20;99.90;;;;;;6322001;22;19984;-84
2022/08/22 12:23:14;;;;;;;1.40;1.27;;;22.30;99.90;;;;;;6305466;22;20041;-88
2022/08/22 12:26:02;;;;;;;1.55;1.45;;;22.30;99.90;;;;;;6302711;22;20074;-89
2022/08/22 12:28:55;;;;;;;4.15;1.88;;;22.40;99.90;;;;;;6303163;22;19999;-88
2022/08/22 12:31:39;;;;;;;2.88;1.50;;;22.40;99.90;;;;;;6302495;22;20516;-89
2022/08/22 12:34:05;;;;;;;4.80;1.48;;;22.50;99.90;;;;;;6302355;22;20031;-87
2022/08/22 12:36:57;;;;;;;1.48;1.30;;;22.60;99.90;;;;;;6303181;22;20021;-88
2022/08/22 12:40:00;;;;;;;1.45;1.35;;;22.60;99.90;;;;;;6302398;22;20048;-88
2022/08/22 12:43:01;;;;;;;3.38;1.10;;;22.70;99.90;;;;;;6302145;22;19995;-89
2022/08/22 12:45:55;;;;;;;7.15;1.40;;;22.80;99.90;;;;;;6302441;22;20341;-88
2022/08/22 12:48:32;;;;;;;1.52;1.23;;;22.90;99.90;;;;;;6302230;22;20071;-87
2022/08/22 12:51:04;;;;;;;2.45;1.30;;;23.00;99.90;;;;;;6302108;22;20424;-88
2022/08/22 12:54:07;;;;;;;4.30;1.20;;;23.10;99.90;;;;;;6303761;22;20003;-88
2022/08/22 12:57:08;;;;;;;1.10;1.10;;;23.10;99.90;;;;;;6275743;22;20020;-88
2022/08/22 12:59:41;;;;;;;1.15;1.10;;;23.20;99.90;;;;;;6302388;22;20007;-85
2022/08/22 13:02:23;;;;;;;1.65;1.08;;;23.20;99.90;;;;;;6302315;22;19996;-88
2022/08/22 13:04:57;;;;;;;0.90;0.90;;;23.10;99.90;;;;;;6302345;22;20078;-88
2022/08/22 13:07:24;;;;;;;1.27;1.20;;;23.00;99.90;;;;;;6302152;22;19996;-86
2022/08/22 13:10:15;;;;;;;3.80;1.17;;;22.80;99.90;;;;;;6302237;22;20321;-87
2022/08/22 13:12:51;;;;;;;1.25;1.02;;;22.80;99.90;;;;;;6274817;22;20011;-87
2022/08/22 13:15:20;;;;;;;1.77;1.10;;;22.80;99.90;;;;;;6302233;22;20140;-88
2022/08/22 13:17:48;;;;;;;4.15;1.20;;;23.00;99.90;;;;;;6302074;22;20023;-84
2022/08/22 13:20:29;;;;;;;2.88;1.08;;;23.30;99.90;;;;;;6302500;22;20060;-85
2022/08/22 13:22:57;;;;;;;3.92;0.90;;;23.40;99.90;;;;;;6302181;22;20072;-85
2022/08/22 13:25:29;;;;;;;0.77;0.77;;;23.50;99.90;;;;;;6302236;22;20523;-88
2022/08/22 13:27:58;;;;;;;5.47;0.90;;;23.50;99.90;;;;;;6302239;22;20006;-87
2022/08/22 13:30:33;;;;;;;1.20;0.80;;;23.60;99.90;;;;;;6301953;22;20099;-88
2022/08/22 13:33:15;;;;;;;0.60;0.60;;;23.50;99.90;;;;;;6302292;22;20389;-88
2022/08/22 13:35:54;;;;;;;0.50;0.50;;;23.60;99.90;;;;;;6302282;22;19999;-88
2022/08/22 13:38:25;;;;;;;1.75;0.60;;;23.60;99.90;;;;;;6302284;22;20347;-86
2022/08/22 13:40:53;;;;;;;1.42;0.75;;;23.70;99.90;;;;;;6274636;22;19999;-88
2022/08/22 13:43:20;;;;;;;;;;;23.80;99.90;;;;;;6302674;22;20003;-88
2022/08/22 13:45:55;;;;;;;2.70;0.50;;;23.90;99.90;;;;;;6302185;22;19906;-88
2022/08/22 13:48:24;;;;;;;5.30;0.80;;;24.10;99.90;;;;;;6303155;22;20358;-84
2022/08/22 13:51:28;;;;;;;0.98;0.73;;;24.10;99.90;;;;;;6303900;22;20008;-88
2022/08/22 13:54:31;;;;;;;2.28;0.70;;;24.10;99.90;;;;;;6256949;22;20003;-86
2022/08/22 13:57:29;;;;;;;0.93;0.70;;;24.10;99.90;;;;;;6258872;22;20358;-85
2022/08/22 14:00:11;;;;;;;;;;;24.20;99.90;;;;;;6303318;22;20034;-84
2022/08/22 14:03:09;;;;;;;0.60;0.60;;;24.20;99.90;;;;;;6305108;22;19899;-85
2022/08/22 14:05:40;;;;;;;1.75;0.60;;;24.30;99.90;;;;;;6288596;22;20405;-85
2022/08/22 14:08:17;;;;;;;1.77;0.70;;;24.30;99.90;;;;;;6304851;22;19995;-87
2022/08/22 14:11:20;;;;;;;2.53;0.40;;;24.50;99.90;;;;;;6303927;22;20078;-88